sensor_id;sensor_type;location;lat;lon;timestamp;P1;durP1;ratioP1;P2;durP2;ratioP2
24644;SDS011;12780;45.502;9.146;2023-04-03T00:00:09;16.25;;;7.28;;
24644;SDS011;12780;45.502;9.146;2023-04-03T00:02:35;18.20;;;7.68;;
24644;SDS011;12780;45.502;9.146;2023-04-03T00:05:01;18.08;;;7.97;;
24644;SDS011;12780;45.502;9.146;2023-04-03T00:07:26;13.82;;;7.30;;
24644;SDS011;12780;45.502;9.146;2023-04-03T00:09:52;29.23;;;11.70;;
24644;SDS011;12780;45.502;9.146;2023-04-03T00:12:17;32.95;;;14.00;;
24644;SDS011;12780;45.502;9.146;2023-04-03T00:14:43;29.58;;;12.43;;
24644;SDS011;12780;45.502;9.146;2023-04-03T00:17:08;30.25;;;10.82;;
24644;SDS011;12780;45.502;9.146;2023-04-03T00:19:34;29.48;;;12.93;;
24644;SDS011;12780;45.502;9.146;2023-04-03T00:22:00;25.83;;;11.40;;
24644;SDS011;12780;45.502;9.146;2023-04-03T00:24:25;16.52;;;8.75;;
24644;SDS011;12780;45.502;9.146;2023-04-03T00:26:51;17.60;;;7.90;;
24644;SDS011;12780;45.502;9.146;2023-04-03T00:29:16;15.52;;;7.18;;
24644;SDS011;12780;45.502;9.146;2023-04-03T00:31:42;13.75;;;7.53;;
24644;SDS011;12780;45.502;9.146;2023-04-03T00:34:07;20.15;;;8.13;;
24644;SDS011;12780;45.502;9.146;2023-04-03T00:36:33;14.55;;;7.60;;
24644;SDS011;12780;45.502;9.146;2023-04-03T00:38:58;16.40;;;8.40;;
24644;SDS011;12780;45.502;9.146;2023-04-03T00:41:24;16.17;;;9.27;;
24644;SDS011;12780;45.502;9.146;2023-04-03T00:43:50;17.33;;;8.63;;
24644;SDS011;12780;45.502;9.146;2023-04-03T00:46:16;17.63;;;8.43;;
24644;SDS011;12780;45.502;9.146;2023-04-03T00:48:42;20.77;;;8.05;;
24644;SDS011;12780;45.502;9.146;2023-04-03T00:51:12;16.33;;;7.43;;
24644;SDS011;12780;45.502;9.146;2023-04-03T00:53:49;14.13;;;7.60;;
24644;SDS011;12780;45.502;9.146;2023-04-03T00:56:19;12.55;;;7.70;;
24644;SDS011;12780;45.502;9.146;2023-04-03T00:58:49;17.75;;;7.30;;
24644;SDS011;12780;45.502;9.146;2023-04-03T01:01:22;14.05;;;6.78;;
24644;SDS011;12780;45.502;9.146;2023-04-03T01:03:50;20.77;;;7.78;;
24644;SDS011;12780;45.502;9.146;2023-04-03T01:06:17;19.23;;;7.95;;
24644;SDS011;12780;45.502;9.146;2023-04-03T01:08:56;15.73;;;8.20;;
24644;SDS011;12780;45.502;9.146;2023-04-03T01:11:21;14.35;;;7.20;;
24644;SDS011;12780;45.502;9.146;2023-04-03T01:13:47;16.02;;;8.07;;
24644;SDS011;12780;45.502;9.146;2023-04-03T01:16:14;15.45;;;7.72;;
24644;SDS011;12780;45.502;9.146;2023-04-03T01:18:40;16.52;;;7.95;;
24644;SDS011;12780;45.502;9.146;2023-04-03T01:26:45;15.25;;;6.97;;
24644;SDS011;12780;45.502;9.146;2023-04-03T01:29:11;18.02;;;7.00;;
24644;SDS011;12780;45.502;9.146;2023-04-03T01:34:09;13.05;;;7.60;;
24644;SDS011;12780;45.502;9.146;2023-04-03T01:36:35;12.55;;;7.00;;
24644;SDS011;12780;45.502;9.146;2023-04-03T01:39:00;11.65;;;7.20;;
24644;SDS011;12780;45.502;9.146;2023-04-03T01:41:26;18.50;;;8.07;;
24644;SDS011;12780;45.502;9.146;2023-04-03T01:43:52;16.95;;;7.25;;
24644;SDS011;12780;45.502;9.146;2023-04-03T01:46:18;18.55;;;8.07;;
24644;SDS011;12780;45.502;9.146;2023-04-03T01:48:45;23.45;;;7.90;;
24644;SDS011;12780;45.502;9.146;2023-04-03T01:51:11;16.20;;;7.80;;
24644;SDS011;12780;45.502;9.146;2023-04-03T01:53:36;15.75;;;7.65;;
24644;SDS011;12780;45.502;9.146;2023-04-03T01:56:02;19.40;;;9.05;;
24644;SDS011;12780;45.502;9.146;2023-04-03T01:58:28;16.33;;;7.78;;
24644;SDS011;12780;45.502;9.146;2023-04-03T02:00:54;14.50;;;8.15;;
24644;SDS011;12780;45.502;9.146;2023-04-03T02:03:20;15.45;;;7.90;;
24644;SDS011;12780;45.502;9.146;2023-04-03T02:05:46;16.52;;;7.82;;
24644;SDS011;12780;45.502;9.146;2023-04-03T02:08:12;15.60;;;7.57;;
24644;SDS011;12780;45.502;9.146;2023-04-03T02:10:38;19.73;;;8.18;;
24644;SDS011;12780;45.502;9.146;2023-04-03T02:13:03;13.57;;;7.70;;
24644;SDS011;12780;45.502;9.146;2023-04-03T02:15:29;14.40;;;8.30;;
24644;SDS011;12780;45.502;9.146;2023-04-03T02:17:54;15.80;;;8.45;;
24644;SDS011;12780;45.502;9.146;2023-04-03T02:20:20;18.52;;;8.27;;
24644;SDS011;12780;45.502;9.146;2023-04-03T02:22:46;14.82;;;8.90;;
24644;SDS011;12780;45.502;9.146;2023-04-03T02:25:11;20.27;;;9.20;;
24644;SDS011;12780;45.502;9.146;2023-04-03T02:27:37;16.58;;;9.45;;
24644;SDS011;12780;45.502;9.146;2023-04-03T02:30:03;15.13;;;8.30;;
24644;SDS011;12780;45.502;9.146;2023-04-03T02:32:30;14.77;;;8.57;;
24644;SDS011;12780;45.502;9.146;2023-04-03T02:34:56;19.88;;;8.60;;
24644;SDS011;12780;45.502;9.146;2023-04-03T02:37:21;16.63;;;8.18;;
24644;SDS011;12780;45.502;9.146;2023-04-03T02:39:47;16.25;;;9.43;;
24644;SDS011;12780;45.502;9.146;2023-04-03T02:42:13;17.02;;;8.85;;
24644;SDS011;12780;45.502;9.146;2023-04-03T02:44:38;16.73;;;8.93;;
24644;SDS011;12780;45.502;9.146;2023-04-03T02:47:04;19.30;;;9.23;;
24644;SDS011;12780;45.502;9.146;2023-04-03T02:49:30;16.52;;;8.60;;
24644;SDS011;12780;45.502;9.146;2023-04-03T02:51:56;18.77;;;8.75;;
24644;SDS011;12780;45.502;9.146;2023-04-03T02:54:21;17.33;;;9.27;;
24644;SDS011;12780;45.502;9.146;2023-04-03T02:56:48;17.05;;;8.35;;
24644;SDS011;12780;45.502;9.146;2023-04-03T02:59:14;15.85;;;8.27;;
24644;SDS011;12780;45.502;9.146;2023-04-03T03:01:40;14.60;;;8.68;;
24644;SDS011;12780;45.502;9.146;2023-04-03T03:04:05;15.60;;;8.10;;
24644;SDS011;12780;45.502;9.146;2023-04-03T03:06:31;20.73;;;8.65;;
24644;SDS011;12780;45.502;9.146;2023-04-03T03:08:56;17.60;;;8.85;;
24644;SDS011;12780;45.502;9.146;2023-04-03T03:11:22;16.08;;;8.75;;
24644;SDS011;12780;45.502;9.146;2023-04-03T03:13:47;17.88;;;9.35;;
24644;SDS011;12780;45.502;9.146;2023-04-03T03:16:13;17.90;;;8.95;;
24644;SDS011;12780;45.502;9.146;2023-04-03T03:18:39;17.02;;;9.23;;
24644;SDS011;12780;45.502;9.146;2023-04-03T03:21:04;16.38;;;8.88;;
24644;SDS011;12780;45.502;9.146;2023-04-03T03:23:30;18.95;;;8.55;;
24644;SDS011;12780;45.502;9.146;2023-04-03T03:26:07;19.30;;;8.85;;
24644;SDS011;12780;45.502;9.146;2023-04-03T03:28:35;19.73;;;9.07;;
24644;SDS011;12780;45.502;9.146;2023-04-03T03:31:02;23.25;;;8.70;;
24644;SDS011;12780;45.502;9.146;2023-04-03T03:33:28;15.48;;;8.57;;
24644;SDS011;12780;45.502;9.146;2023-04-03T03:35:54;15.60;;;8.93;;
24644;SDS011;12780;45.502;9.146;2023-04-03T03:38:20;12.48;;;8.50;;
24644;SDS011;12780;45.502;9.146;2023-04-03T03:40:49;15.45;;;8.73;;
24644;SDS011;12780;45.502;9.146;2023-04-03T03:43:15;19.88;;;8.93;;
24644;SDS011;12780;45.502;9.146;2023-04-03T03:45:41;12.90;;;8.15;;
24644;SDS011;12780;45.502;9.146;2023-04-03T03:48:07;17.85;;;8.82;;
24644;SDS011;12780;45.502;9.146;2023-04-03T03:50:32;13.07;;;7.90;;
24644;SDS011;12780;45.502;9.146;2023-04-03T03:52:58;20.05;;;8.63;;
24644;SDS011;12780;45.502;9.146;2023-04-03T03:55:25;15.30;;;7.55;;
24644;SDS011;12780;45.502;9.146;2023-04-03T03:57:50;12.05;;;7.03;;
24644;SDS011;12780;45.502;9.146;2023-04-03T04:00:16;14.60;;;7.68;;
24644;SDS011;12780;45.502;9.146;2023-04-03T04:02:43;15.43;;;7.95;;
24644;SDS011;12780;45.502;9.146;2023-04-03T04:05:09;14.38;;;7.82;;
24644;SDS011;12780;45.502;9.146;2023-04-03T04:07:35;19.92;;;8.02;;
24644;SDS011;12780;45.502;9.146;2023-04-03T04:10:00;19.20;;;7.93;;
24644;SDS011;12780;45.502;9.146;2023-04-03T04:12:27;15.90;;;8.23;;
24644;SDS011;12780;45.502;9.146;2023-04-03T04:14:52;16.98;;;7.90;;
24644;SDS011;12780;45.502;9.146;2023-04-03T04:17:18;16.02;;;8.20;;
24644;SDS011;12780;45.502;9.146;2023-04-03T04:19:43;18.98;;;9.18;;
24644;SDS011;12780;45.502;9.146;2023-04-03T04:22:09;16.10;;;8.90;;
24644;SDS011;12780;45.502;9.146;2023-04-03T04:24:35;17.63;;;9.00;;
24644;SDS011;12780;45.502;9.146;2023-04-03T04:27:00;19.08;;;8.48;;
24644;SDS011;12780;45.502;9.146;2023-04-03T04:29:26;18.08;;;7.97;;
24644;SDS011;12780;45.502;9.146;2023-04-03T04:31:51;19.73;;;8.30;;
24644;SDS011;12780;45.502;9.146;2023-04-03T04:34:17;14.93;;;8.15;;
24644;SDS011;12780;45.502;9.146;2023-04-03T04:36:42;14.77;;;7.70;;
24644;SDS011;12780;45.502;9.146;2023-04-03T04:39:08;13.80;;;7.68;;
24644;SDS011;12780;45.502;9.146;2023-04-03T04:41:34;12.50;;;8.10;;
24644;SDS011;12780;45.502;9.146;2023-04-03T04:43:59;14.02;;;7.57;;
24644;SDS011;12780;45.502;9.146;2023-04-03T04:46:25;13.88;;;8.55;;
24644;SDS011;12780;45.502;9.146;2023-04-03T04:48:51;16.08;;;7.85;;
24644;SDS011;12780;45.502;9.146;2023-04-03T04:51:17;14.65;;;7.93;;
24644;SDS011;12780;45.502;9.146;2023-04-03T04:53:43;20.55;;;7.88;;
24644;SDS011;12780;45.502;9.146;2023-04-03T04:56:09;16.27;;;8.45;;
24644;SDS011;12780;45.502;9.146;2023-04-03T04:58:35;13.73;;;8.25;;
24644;SDS011;12780;45.502;9.146;2023-04-03T05:01:05;16.30;;;7.93;;
24644;SDS011;12780;45.502;9.146;2023-04-03T05:03:32;22.90;;;8.10;;
24644;SDS011;12780;45.502;9.146;2023-04-03T05:05:58;13.90;;;7.55;;
24644;SDS011;12780;45.502;9.146;2023-04-03T05:08:24;16.17;;;7.93;;
24644;SDS011;12780;45.502;9.146;2023-04-03T05:10:49;18.40;;;8.93;;
24644;SDS011;12780;45.502;9.146;2023-04-03T05:13:15;19.80;;;8.75;;
24644;SDS011;12780;45.502;9.146;2023-04-03T05:15:41;23.13;;;9.98;;
24644;SDS011;12780;45.502;9.146;2023-04-03T05:18:07;16.25;;;7.97;;
24644;SDS011;12780;45.502;9.146;2023-04-03T05:20:33;16.25;;;8.30;;
24644;SDS011;12780;45.502;9.146;2023-04-03T05:22:58;18.60;;;8.52;;
24644;SDS011;12780;45.502;9.146;2023-04-03T05:25:24;17.40;;;8.35;;
24644;SDS011;12780;45.502;9.146;2023-04-03T05:27:50;20.63;;;8.23;;
24644;SDS011;12780;45.502;9.146;2023-04-03T05:30:15;16.05;;;8.18;;
24644;SDS011;12780;45.502;9.146;2023-04-03T05:32:41;19.90;;;8.68;;
24644;SDS011;12780;45.502;9.146;2023-04-03T05:35:07;21.52;;;9.65;;
24644;SDS011;12780;45.502;9.146;2023-04-03T05:37:33;20.58;;;9.88;;
24644;SDS011;12780;45.502;9.146;2023-04-03T05:39:59;17.08;;;8.20;;
24644;SDS011;12780;45.502;9.146;2023-04-03T05:42:25;21.75;;;9.35;;
24644;SDS011;12780;45.502;9.146;2023-04-03T05:44:51;19.45;;;7.90;;
24644;SDS011;12780;45.502;9.146;2023-04-03T05:47:17;15.35;;;8.02;;
24644;SDS011;12780;45.502;9.146;2023-04-03T05:49:43;20.65;;;8.48;;
24644;SDS011;12780;45.502;9.146;2023-04-03T05:54:51;20.92;;;8.25;;
24644;SDS011;12780;45.502;9.146;2023-04-03T05:57:17;18.95;;;8.02;;
24644;SDS011;12780;45.502;9.146;2023-04-03T05:59:43;17.42;;;8.25;;
24644;SDS011;12780;45.502;9.146;2023-04-03T06:02:11;21.80;;;8.55;;
24644;SDS011;12780;45.502;9.146;2023-04-03T06:04:38;18.42;;;7.80;;
24644;SDS011;12780;45.502;9.146;2023-04-03T06:07:03;19.92;;;8.63;;
24644;SDS011;12780;45.502;9.146;2023-04-03T06:09:29;23.13;;;8.38;;
24644;SDS011;12780;45.502;9.146;2023-04-03T06:11:55;19.25;;;8.43;;
24644;SDS011;12780;45.502;9.146;2023-04-03T06:14:23;25.00;;;8.63;;
24644;SDS011;12780;45.502;9.146;2023-04-03T06:16:50;23.20;;;9.18;;
24644;SDS011;12780;45.502;9.146;2023-04-03T06:19:16;21.85;;;8.80;;
24644;SDS011;12780;45.502;9.146;2023-04-03T06:21:42;18.75;;;8.70;;
24644;SDS011;12780;45.502;9.146;2023-04-03T06:24:07;20.30;;;8.90;;
24644;SDS011;12780;45.502;9.146;2023-04-03T06:26:34;21.42;;;8.82;;
24644;SDS011;12780;45.502;9.146;2023-04-03T06:29:00;19.40;;;9.40;;
24644;SDS011;12780;45.502;9.146;2023-04-03T06:31:27;20.98;;;10.15;;
24644;SDS011;12780;45.502;9.146;2023-04-03T06:33:52;17.38;;;9.27;;
24644;SDS011;12780;45.502;9.146;2023-04-03T06:36:19;28.23;;;10.30;;
24644;SDS011;12780;45.502;9.146;2023-04-03T06:38:46;20.33;;;7.63;;
24644;SDS011;12780;45.502;9.146;2023-04-03T06:41:12;12.82;;;6.95;;
24644;SDS011;12780;45.502;9.146;2023-04-03T06:43:37;19.85;;;6.82;;
24644;SDS011;12780;45.502;9.146;2023-04-03T06:46:03;11.50;;;5.95;;
24644;SDS011;12780;45.502;9.146;2023-04-03T06:48:29;11.18;;;5.70;;
24644;SDS011;12780;45.502;9.146;2023-04-03T06:50:54;13.05;;;5.28;;
24644;SDS011;12780;45.502;9.146;2023-04-03T06:53:20;15.20;;;5.30;;
24644;SDS011;12780;45.502;9.146;2023-04-03T06:55:46;10.25;;;5.22;;
24644;SDS011;12780;45.502;9.146;2023-04-03T06:58:12;20.40;;;5.53;;
24644;SDS011;12780;45.502;9.146;2023-04-03T07:00:40;16.02;;;5.38;;
24644;SDS011;12780;45.502;9.146;2023-04-03T07:03:06;14.60;;;5.38;;
24644;SDS011;12780;45.502;9.146;2023-04-03T07:05:31;16.08;;;5.43;;
24644;SDS011;12780;45.502;9.146;2023-04-03T07:07:57;11.60;;;5.50;;
24644;SDS011;12780;45.502;9.146;2023-04-03T07:10:23;13.15;;;5.55;;
24644;SDS011;12780;45.502;9.146;2023-04-03T07:12:48;17.02;;;5.70;;
24644;SDS011;12780;45.502;9.146;2023-04-03T07:15:14;14.25;;;5.70;;
24644;SDS011;12780;45.502;9.146;2023-04-03T07:17:40;16.75;;;5.60;;
24644;SDS011;12780;45.502;9.146;2023-04-03T07:20:06;16.77;;;5.65;;
24644;SDS011;12780;45.502;9.146;2023-04-03T07:22:33;13.70;;;5.40;;
24644;SDS011;12780;45.502;9.146;2023-04-03T07:24:58;11.20;;;5.28;;
24644;SDS011;12780;45.502;9.146;2023-04-03T07:27:24;10.68;;;5.18;;
24644;SDS011;12780;45.502;9.146;2023-04-03T07:29:50;9.75;;;4.57;;
24644;SDS011;12780;45.502;9.146;2023-04-03T07:32:16;7.85;;;4.75;;
24644;SDS011;12780;45.502;9.146;2023-04-03T07:34:42;13.13;;;5.25;;
24644;SDS011;12780;45.502;9.146;2023-04-03T07:37:09;11.18;;;5.00;;
24644;SDS011;12780;45.502;9.146;2023-04-03T07:39:35;11.52;;;5.78;;
24644;SDS011;12780;45.502;9.146;2023-04-03T07:42:01;14.25;;;5.20;;
24644;SDS011;12780;45.502;9.146;2023-04-03T07:44:26;10.85;;;5.82;;
24644;SDS011;12780;45.502;9.146;2023-04-03T07:46:52;13.32;;;5.50;;
24644;SDS011;12780;45.502;9.146;2023-04-03T07:49:20;17.33;;;5.75;;
24644;SDS011;12780;45.502;9.146;2023-04-03T07:51:48;9.77;;;5.93;;
24644;SDS011;12780;45.502;9.146;2023-04-03T07:54:33;9.27;;;5.50;;
24644;SDS011;12780;45.502;9.146;2023-04-03T07:56:59;17.08;;;6.00;;
24644;SDS011;12780;45.502;9.146;2023-04-03T07:59:26;10.48;;;5.30;;
24644;SDS011;12780;45.502;9.146;2023-04-03T08:01:51;9.73;;;6.00;;
24644;SDS011;12780;45.502;9.146;2023-04-03T08:04:17;14.93;;;5.13;;
24644;SDS011;12780;45.502;9.146;2023-04-03T08:06:43;8.27;;;4.32;;
24644;SDS011;12780;45.502;9.146;2023-04-03T08:09:08;11.40;;;4.88;;
24644;SDS011;12780;45.502;9.146;2023-04-03T08:11:34;9.50;;;4.65;;
24644;SDS011;12780;45.502;9.146;2023-04-03T08:14:01;10.18;;;4.47;;
24644;SDS011;12780;45.502;9.146;2023-04-03T08:16:27;6.90;;;4.28;;
24644;SDS011;12780;45.502;9.146;2023-04-03T08:18:54;10.45;;;4.78;;
24644;SDS011;12780;45.502;9.146;2023-04-03T08:21:20;17.77;;;4.50;;
24644;SDS011;12780;45.502;9.146;2023-04-03T08:23:48;11.38;;;4.07;;
24644;SDS011;12780;45.502;9.146;2023-04-03T08:26:16;7.05;;;4.70;;
24644;SDS011;12780;45.502;9.146;2023-04-03T08:28:43;13.15;;;4.90;;
24644;SDS011;12780;45.502;9.146;2023-04-03T08:31:10;14.48;;;5.22;;
24644;SDS011;12780;45.502;9.146;2023-04-03T08:33:38;8.90;;;4.55;;
24644;SDS011;12780;45.502;9.146;2023-04-03T08:36:05;13.52;;;4.97;;
24644;SDS011;12780;45.502;9.146;2023-04-03T08:38:33;10.32;;;4.75;;
24644;SDS011;12780;45.502;9.146;2023-04-03T08:41:04;11.55;;;4.53;;
24644;SDS011;12780;45.502;9.146;2023-04-03T08:46:19;11.52;;;4.47;;
24644;SDS011;12780;45.502;9.146;2023-04-03T08:48:50;7.20;;;4.30;;
24644;SDS011;12780;45.502;9.146;2023-04-03T08:51:17;7.68;;;4.47;;
24644;SDS011;12780;45.502;9.146;2023-04-03T08:53:54;7.00;;;4.05;;
24644;SDS011;12780;45.502;9.146;2023-04-03T08:56:24;6.35;;;3.63;;
24644;SDS011;12780;45.502;9.146;2023-04-03T08:58:52;8.82;;;3.72;;
24644;SDS011;12780;45.502;9.146;2023-04-03T09:01:24;11.35;;;4.20;;
24644;SDS011;12780;45.502;9.146;2023-04-03T09:03:54;8.40;;;4.38;;
24644;SDS011;12780;45.502;9.146;2023-04-03T09:06:25;7.03;;;4.03;;
24644;SDS011;12780;45.502;9.146;2023-04-03T09:11:26;9.55;;;4.43;;
24644;SDS011;12780;45.502;9.146;2023-04-03T09:14:24;9.00;;;4.18;;
24644;SDS011;12780;45.502;9.146;2023-04-03T09:19:39;7.50;;;4.50;;
24644;SDS011;12780;45.502;9.146;2023-04-03T09:22:23;6.50;;;4.30;;
24644;SDS011;12780;45.502;9.146;2023-04-03T09:27:48;8.23;;;4.50;;
24644;SDS011;12780;45.502;9.146;2023-04-03T09:30:15;10.27;;;4.00;;
24644;SDS011;12780;45.502;9.146;2023-04-03T09:32:44;8.45;;;4.40;;
24644;SDS011;12780;45.502;9.146;2023-04-03T09:35:23;14.25;;;4.82;;
24644;SDS011;12780;45.502;9.146;2023-04-03T09:38:00;7.85;;;4.70;;
24644;SDS011;12780;45.502;9.146;2023-04-03T09:40:43;7.70;;;4.77;;
24644;SDS011;12780;45.502;9.146;2023-04-03T09:45:42;13.88;;;4.45;;
24644;SDS011;12780;45.502;9.146;2023-04-03T09:50:37;7.53;;;4.40;;
24644;SDS011;12780;45.502;9.146;2023-04-03T09:53:28;9.60;;;4.47;;
24644;SDS011;12780;45.502;9.146;2023-04-03T09:56:03;7.07;;;3.90;;
24644;SDS011;12780;45.502;9.146;2023-04-03T10:01:30;6.57;;;4.00;;
24644;SDS011;12780;45.502;9.146;2023-04-03T10:06:39;7.18;;;4.53;;
24644;SDS011;12780;45.502;9.146;2023-04-03T10:09:18;7.28;;;4.45;;
24644;SDS011;12780;45.502;9.146;2023-04-03T10:14:35;9.45;;;4.07;;
24644;SDS011;12780;45.502;9.146;2023-04-03T10:19:45;11.07;;;4.47;;
24644;SDS011;12780;45.502;9.146;2023-04-03T10:25:11;5.55;;;3.67;;
24644;SDS011;12780;45.502;9.146;2023-04-03T10:30:53;9.63;;;3.83;;
24644;SDS011;12780;45.502;9.146;2023-04-03T10:36:14;8.15;;;3.42;;
24644;SDS011;12780;45.502;9.146;2023-04-03T10:41:43;9.07;;;3.67;;
24644;SDS011;12780;45.502;9.146;2023-04-03T10:47:06;4.93;;;3.20;;
24644;SDS011;12780;45.502;9.146;2023-04-03T10:49:48;8.50;;;3.45;;
24644;SDS011;12780;45.502;9.146;2023-04-03T10:52:47;7.68;;;3.30;;
24644;SDS011;12780;45.502;9.146;2023-04-03T10:58:17;12.65;;;3.83;;
24644;SDS011;12780;45.502;9.146;2023-04-03T11:00:52;4.47;;;3.40;;
24644;SDS011;12780;45.502;9.146;2023-04-03T11:05:49;9.07;;;3.55;;
24644;SDS011;12780;45.502;9.146;2023-04-03T11:11:08;5.32;;;3.67;;
24644;SDS011;12780;45.502;9.146;2023-04-03T11:13:47;5.40;;;3.40;;
24644;SDS011;12780;45.502;9.146;2023-04-03T11:16:19;4.57;;;3.40;;
24644;SDS011;12780;45.502;9.146;2023-04-03T11:18:50;5.32;;;3.60;;
24644;SDS011;12780;45.502;9.146;2023-04-03T11:21:29;8.43;;;3.55;;
24644;SDS011;12780;45.502;9.146;2023-04-03T11:24:00;4.70;;;3.30;;
24644;SDS011;12780;45.502;9.146;2023-04-03T11:26:31;5.55;;;3.10;;
24644;SDS011;12780;45.502;9.146;2023-04-03T11:29:04;6.32;;;3.15;;
24644;SDS011;12780;45.502;9.146;2023-04-03T11:31:37;7.70;;;3.08;;
24644;SDS011;12780;45.502;9.146;2023-04-03T11:34:26;7.60;;;3.08;;
24644;SDS011;12780;45.502;9.146;2023-04-03T11:37:28;6.32;;;2.70;;
24644;SDS011;12780;45.502;9.146;2023-04-03T11:42:43;9.80;;;2.90;;
24644;SDS011;12780;45.502;9.146;2023-04-03T11:48:41;6.63;;;3.22;;
24644;SDS011;12780;45.502;9.146;2023-04-03T11:50:53;5.25;;;3.03;;
24644;SDS011;12780;45.502;9.146;2023-04-03T11:53:27;10.18;;;3.15;;
24644;SDS011;12780;45.502;9.146;2023-04-03T12:16:43;5.70;;;2.60;;
24644;SDS011;12780;45.502;9.146;2023-04-03T12:29:14;6.75;;;2.70;;
24644;SDS011;12780;45.502;9.146;2023-04-03T12:37:24;7.40;;;2.60;;
24644;SDS011;12780;45.502;9.146;2023-04-03T12:51:13;9.40;;;2.17;;
24644;SDS011;12780;45.502;9.146;2023-04-03T12:53:40;3.03;;;1.90;;
24644;SDS011;12780;45.502;9.146;2023-04-03T12:56:27;3.58;;;2.20;;
24644;SDS011;12780;45.502;9.146;2023-04-03T12:59:16;5.18;;;2.15;;
24644;SDS011;12780;45.502;9.146;2023-04-03T13:01:42;3.83;;;2.20;;
24644;SDS011;12780;45.502;9.146;2023-04-03T13:04:09;4.20;;;2.30;;
24644;SDS011;12780;45.502;9.146;2023-04-03T13:06:38;5.82;;;2.53;;
24644;SDS011;12780;45.502;9.146;2023-04-03T13:09:14;5.45;;;2.42;;
24644;SDS011;12780;45.502;9.146;2023-04-03T13:11:46;10.73;;;2.08;;
24644;SDS011;12780;45.502;9.146;2023-04-03T13:14:20;6.60;;;2.22;;
24644;SDS011;12780;45.502;9.146;2023-04-03T13:16:57;6.38;;;2.20;;
24644;SDS011;12780;45.502;9.146;2023-04-03T13:19:25;4.72;;;2.00;;
24644;SDS011;12780;45.502;9.146;2023-04-03T13:24:50;6.28;;;2.10;;
24644;SDS011;12780;45.502;9.146;2023-04-03T13:27:17;4.00;;;2.28;;
24644;SDS011;12780;45.502;9.146;2023-04-03T13:29:43;5.28;;;2.13;;
24644;SDS011;12780;45.502;9.146;2023-04-03T13:32:17;6.22;;;2.38;;
24644;SDS011;12780;45.502;9.146;2023-04-03T13:34:49;6.88;;;2.08;;
24644;SDS011;12780;45.502;9.146;2023-04-03T13:37:26;3.78;;;1.98;;
24644;SDS011;12780;45.502;9.146;2023-04-03T13:40:09;5.47;;;1.88;;
24644;SDS011;12780;45.502;9.146;2023-04-03T13:42:37;4.53;;;2.03;;
24644;SDS011;12780;45.502;9.146;2023-04-03T13:47:54;4.55;;;2.10;;
24644;SDS011;12780;45.502;9.146;2023-04-03T13:50:54;3.55;;;2.03;;
24644;SDS011;12780;45.502;9.146;2023-04-03T13:53:23;6.82;;;2.42;;
24644;SDS011;12780;45.502;9.146;2023-04-03T13:55:55;8.43;;;2.45;;
24644;SDS011;12780;45.502;9.146;2023-04-03T13:58:28;2.47;;;1.92;;
24644;SDS011;12780;45.502;9.146;2023-04-03T14:00:59;5.57;;;2.28;;
24644;SDS011;12780;45.502;9.146;2023-04-03T14:03:34;3.78;;;2.25;;
24644;SDS011;12780;45.502;9.146;2023-04-03T14:06:30;4.38;;;1.85;;
24644;SDS011;12780;45.502;9.146;2023-04-03T14:08:55;5.97;;;2.00;;
24644;SDS011;12780;45.502;9.146;2023-04-03T14:11:22;4.00;;;2.22;;
24644;SDS011;12780;45.502;9.146;2023-04-03T14:13:53;2.97;;;2.03;;
24644;SDS011;12780;45.502;9.146;2023-04-03T14:16:22;3.28;;;2.08;;
24644;SDS011;12780;45.502;9.146;2023-04-03T14:18:52;3.00;;;1.98;;
24644;SDS011;12780;45.502;9.146;2023-04-03T14:21:18;5.78;;;2.05;;
24644;SDS011;12780;45.502;9.146;2023-04-03T14:23:45;5.70;;;1.90;;
24644;SDS011;12780;45.502;9.146;2023-04-03T14:26:12;6.63;;;2.17;;
24644;SDS011;12780;45.502;9.146;2023-04-03T14:28:41;9.65;;;2.30;;
24644;SDS011;12780;45.502;9.146;2023-04-03T14:31:08;5.47;;;2.05;;
24644;SDS011;12780;45.502;9.146;2023-04-03T14:33:36;3.38;;;1.88;;
24644;SDS011;12780;45.502;9.146;2023-04-03T14:36:05;5.93;;;1.98;;
24644;SDS011;12780;45.502;9.146;2023-04-03T14:38:45;3.95;;;1.83;;
24644;SDS011;12780;45.502;9.146;2023-04-03T14:41:12;7.80;;;1.88;;
24644;SDS011;12780;45.502;9.146;2023-04-03T14:43:39;3.05;;;2.00;;
24644;SDS011;12780;45.502;9.146;2023-04-03T14:46:05;6.55;;;2.30;;
24644;SDS011;12780;45.502;9.146;2023-04-03T14:48:44;7.03;;;2.13;;
24644;SDS011;12780;45.502;9.146;2023-04-03T14:51:11;2.70;;;2.00;;
24644;SDS011;12780;45.502;9.146;2023-04-03T14:53:38;4.13;;;2.10;;
24644;SDS011;12780;45.502;9.146;2023-04-03T14:56:17;4.07;;;2.50;;
24644;SDS011;12780;45.502;9.146;2023-04-03T14:58:51;6.70;;;2.00;;
24644;SDS011;12780;45.502;9.146;2023-04-03T15:01:25;6.20;;;2.20;;
24644;SDS011;12780;45.502;9.146;2023-04-03T15:03:52;3.83;;;2.13;;
24644;SDS011;12780;45.502;9.146;2023-04-03T15:06:17;3.38;;;2.17;;
24644;SDS011;12780;45.502;9.146;2023-04-03T15:08:43;2.85;;;1.83;;
24644;SDS011;12780;45.502;9.146;2023-04-03T15:11:10;6.50;;;1.95;;
24644;SDS011;12780;45.502;9.146;2023-04-03T15:13:38;4.82;;;2.10;;
24644;SDS011;12780;45.502;9.146;2023-04-03T15:16:04;7.32;;;2.00;;
24644;SDS011;12780;45.502;9.146;2023-04-03T15:18:37;11.25;;;2.10;;
24644;SDS011;12780;45.502;9.146;2023-04-03T15:21:03;9.00;;;3.95;;
24644;SDS011;12780;45.502;9.146;2023-04-03T15:23:30;5.93;;;2.50;;
24644;SDS011;12780;45.502;9.146;2023-04-03T15:25:56;4.22;;;2.15;;
24644;SDS011;12780;45.502;9.146;2023-04-03T15:28:27;9.63;;;2.50;;
24644;SDS011;12780;45.502;9.146;2023-04-03T15:30:55;7.30;;;2.30;;
24644;SDS011;12780;45.502;9.146;2023-04-03T15:33:20;6.35;;;2.50;;
24644;SDS011;12780;45.502;9.146;2023-04-03T15:35:46;8.32;;;2.67;;
24644;SDS011;12780;45.502;9.146;2023-04-03T15:38:12;6.88;;;2.33;;
24644;SDS011;12780;45.502;9.146;2023-04-03T15:40:38;7.40;;;2.50;;
24644;SDS011;12780;45.502;9.146;2023-04-03T15:43:05;13.30;;;2.78;;
24644;SDS011;12780;45.502;9.146;2023-04-03T15:45:31;4.63;;;2.45;;
24644;SDS011;12780;45.502;9.146;2023-04-03T15:47:58;3.28;;;2.45;;
24644;SDS011;12780;45.502;9.146;2023-04-03T15:50:24;8.35;;;2.90;;
24644;SDS011;12780;45.502;9.146;2023-04-03T15:52:51;8.68;;;3.00;;
24644;SDS011;12780;45.502;9.146;2023-04-03T15:55:22;5.93;;;3.00;;
24644;SDS011;12780;45.502;9.146;2023-04-03T15:57:50;10.02;;;2.50;;
24644;SDS011;12780;45.502;9.146;2023-04-03T16:00:16;10.93;;;3.13;;
24644;SDS011;12780;45.502;9.146;2023-04-03T16:02:46;13.05;;;2.78;;
24644;SDS011;12780;45.502;9.146;2023-04-03T16:05:13;10.35;;;2.72;;
24644;SDS011;12780;45.502;9.146;2023-04-03T16:07:40;10.35;;;2.70;;
24644;SDS011;12780;45.502;9.146;2023-04-03T16:10:06;6.78;;;2.47;;
24644;SDS011;12780;45.502;9.146;2023-04-03T16:12:33;5.50;;;2.90;;
24644;SDS011;12780;45.502;9.146;2023-04-03T16:14:59;6.50;;;2.50;;
24644;SDS011;12780;45.502;9.146;2023-04-03T16:17:25;5.80;;;2.40;;
24644;SDS011;12780;45.502;9.146;2023-04-03T16:19:51;16.10;;;3.17;;
24644;SDS011;12780;45.502;9.146;2023-04-03T16:22:17;7.45;;;2.50;;
24644;SDS011;12780;45.502;9.146;2023-04-03T16:24:43;7.35;;;2.53;;
24644;SDS011;12780;45.502;9.146;2023-04-03T16:27:09;10.00;;;2.65;;
24644;SDS011;12780;45.502;9.146;2023-04-03T16:29:35;9.85;;;2.47;;
24644;SDS011;12780;45.502;9.146;2023-04-03T16:32:01;5.85;;;2.53;;
24644;SDS011;12780;45.502;9.146;2023-04-03T16:34:27;6.05;;;2.58;;
24644;SDS011;12780;45.502;9.146;2023-04-03T16:36:55;13.20;;;2.53;;
24644;SDS011;12780;45.502;9.146;2023-04-03T16:39:20;13.40;;;2.80;;
24644;SDS011;12780;45.502;9.146;2023-04-03T16:41:46;4.55;;;2.40;;
24644;SDS011;12780;45.502;9.146;2023-04-03T16:44:12;7.10;;;2.80;;